Time;durP1;ratioP1;P1;durP2;ratioP2;P2;SDS_P1;SDS_P2;PMS_P1;PMS_P2;Temp;Humidity;BMP_temperature;BMP_pressure;BME280_temperature;BME280_humidity;BME280_pressure;Samples;Min_cycle;Max_cycle;Signal;HPM_P1;HPM_P2
2023/07/18 00:03:37;;;;;;;7.95;6.45;;;17.70;99.90;;;;;;8294912;28;20030;-81
2023/07/18 00:07:42;;;;;;;13.68;7.15;;;18.00;99.90;;;;;;8294966;28;20034;-81
2023/07/18 00:11:44;;;;;;;12.80;7.00;;;17.90;99.90;;;;;;8296628;28;20046;-81
2023/07/18 00:15:46;;;;;;;10.98;6.75;;;17.60;99.90;;;;;;8295025;28;20530;-81
2023/07/18 00:19:47;;;;;;;9.32;7.13;;;17.50;99.90;;;;;;8296334;28;20014;-81
2023/07/18 00:23:48;;;;;;;13.52;7.28;;;17.40;99.90;;;;;;8296222;28;20021;-81
2023/07/18 00:27:50;;;;;;;15.63;8.00;;;17.10;99.90;;;;;;8294669;28;20037;-81
2023/07/18 00:31:51;;;;;;;12.13;7.78;;;17.00;99.90;;;;;;8296254;28;20121;-81
2023/07/18 00:35:52;;;;;;;11.95;7.80;;;17.10;99.90;;;;;;8290306;28;20030;-81
2023/07/18 00:39:55;;;;;;;16.30;7.80;;;17.00;99.90;;;;;;8293036;28;20029;-81
2023/07/18 00:43:55;;;;;;;10.15;6.97;;;17.00;99.90;;;;;;8294275;28;20024;-81
2023/07/18 00:47:56;;;;;;;11.20;7.50;;;17.00;99.90;;;;;;8285828;28;20019;-80
2023/07/18 00:51:57;;;;;;;9.02;7.38;;;17.20;99.90;;;;;;8293343;28;20049;-81
2023/07/18 00:55:59;;;;;;;9.73;7.32;;;17.00;99.90;;;;;;8291385;28;20022;-81
2023/07/18 01:00:00;;;;;;;11.10;7.57;;;16.80;99.90;;;;;;8290166;28;20036;-81
2023/07/18 01:04:00;;;;;;;15.35;7.70;;;16.80;99.90;;;;;;8294115;28;20392;-81
2023/07/18 01:08:03;;;;;;;11.50;6.97;;;16.70;99.90;;;;;;8288251;28;20034;-81
2023/07/18 01:12:03;;;;;;;11.43;7.00;;;16.60;99.90;;;;;;8291151;28;20091;-84
2023/07/18 01:16:04;;;;;;;11.35;7.40;;;16.60;99.90;;;;;;8280497;28;20038;-81
2023/07/18 01:20:07;;;;;;;9.05;6.45;;;16.90;99.90;;;;;;8286169;28;20628;-80
2023/07/18 01:24:10;;;;;;;9.38;6.70;;;17.20;99.90;;;;;;8295143;28;20496;-80
2023/07/18 01:28:11;;;;;;;11.00;5.95;;;17.50;99.90;;;;;;8294051;28;20038;-80
2023/07/18 01:32:11;;;;;;;9.98;6.45;;;17.40;99.90;;;;;;8295012;28;20030;-81
2023/07/18 01:36:12;;;;;;;9.88;7.03;;;17.10;99.90;;;;;;8285308;28;20511;-81
2023/07/18 01:40:15;;;;;;;10.43;6.15;;;16.90;99.90;;;;;;8287067;28;20026;-80
2023/07/18 01:44:16;;;;;;;9.70;6.18;;;16.70;99.90;;;;;;8291814;28;20096;-82
2023/07/18 01:48:18;;;;;;;11.13;6.30;;;16.90;99.90;;;;;;8286693;28;20021;-81
2023/07/18 01:52:18;;;;;;;12.15;7.13;;;16.70;99.90;;;;;;8287546;28;20022;-81
2023/07/18 01:56:19;;;;;;;11.20;6.38;;;16.40;99.90;;;;;;8285810;28;20592;-81
2023/07/18 02:00:20;;;;;;;12.18;7.10;;;16.50;99.90;;;;;;8292617;28;20041;-80
2023/07/18 02:04:20;;;;;;;12.05;6.97;;;16.60;99.90;;;;;;8284215;28;20506;-82
2023/07/18 02:08:21;;;;;;;15.43;7.13;;;16.70;99.90;;;;;;8291199;28;20034;-81
2023/07/18 02:12:21;;;;;;;12.27;6.85;;;16.80;99.90;;;;;;8293594;28;20034;-80
2023/07/18 02:16:22;;;;;;;13.30;6.50;;;16.80;99.90;;;;;;8288914;28;20033;-81
2023/07/18 02:20:23;;;;;;;9.52;6.18;;;16.80;99.90;;;;;;8291747;28;20028;-82
2023/07/18 02:24:23;;;;;;;11.82;6.30;;;16.60;99.90;;;;;;8292892;28;20106;-81
2023/07/18 02:28:25;;;;;;;10.55;6.13;;;16.70;99.90;;;;;;8298362;28;20615;-82
2023/07/18 02:32:25;;;;;;;11.05;6.50;;;16.70;99.90;;;;;;8300198;28;20018;-81
2023/07/18 02:36:28;;;;;;;12.05;6.38;;;16.70;99.90;;;;;;8299788;28;20071;-80
2023/07/18 02:40:28;;;;;;;9.82;5.97;;;16.40;99.90;;;;;;8290320;28;20029;-80
2023/07/18 02:44:29;;;;;;;12.75;6.72;;;16.20;99.90;;;;;;8289451;28;20514;-80
2023/07/18 02:48:29;;;;;;;14.73;6.03;;;16.10;99.90;;;;;;8297501;28;20022;-80
2023/07/18 02:52:30;;;;;;;11.55;6.28;;;16.10;99.90;;;;;;8292370;28;20044;-80
2023/07/18 02:56:32;;;;;;;13.30;5.97;;;16.10;99.90;;;;;;8295658;28;20018;-80
2023/07/18 03:00:33;;;;;;;10.20;5.35;;;15.90;99.90;;;;;;8297236;28;20018;-80
2023/07/18 03:04:35;;;;;;;8.93;5.80;;;15.70;99.90;;;;;;8291642;28;20018;-81
2023/07/18 03:08:36;;;;;;;10.27;5.75;;;15.60;99.90;;;;;;8291583;28;20018;-80
2023/07/18 03:12:36;;;;;;;7.85;5.60;;;15.70;99.90;;;;;;8297276;28;20044;-80
2023/07/18 03:16:40;;;;;;;9.82;5.32;;;15.40;99.90;;;;;;8286932;28;20037;-81
2023/07/18 03:20:41;;;;;;;10.60;5.60;;;15.10;99.90;;;;;;8289721;28;20046;-80
2023/07/18 03:24:41;;;;;;;7.70;5.25;;;14.90;99.90;;;;;;8294468;28;20029;-80
2023/07/18 03:28:42;;;;;;;11.30;5.57;;;14.80;99.90;;;;;;8292701;28;20036;-80
2023/07/18 03:32:43;;;;;;;9.57;5.03;;;14.80;99.90;;;;;;8290506;28;20014;-80
2023/07/18 03:36:43;;;;;;;8.43;5.82;;;14.70;99.90;;;;;;8295528;28;20036;-80
2023/07/18 03:40:46;;;;;;;10.50;5.35;;;14.80;99.90;;;;;;8294007;28;20018;-84
2023/07/18 03:44:47;;;;;;;15.40;5.70;;;14.90;99.90;;;;;;8290906;28;20057;-80
2023/07/18 03:48:48;;;;;;;12.77;5.57;;;14.80;99.90;;;;;;8292463;28;20076;-80
2023/07/18 03:52:48;;;;;;;11.43;5.53;;;14.70;99.90;;;;;;8289500;28;20053;-82
2023/07/18 03:56:49;;;;;;;7.70;4.90;;;14.70;99.90;;;;;;8284953;28;20026;-81
2023/07/18 04:00:49;;;;;;;6.85;5.15;;;15.10;99.90;;;;;;8281616;28;20062;-81
2023/07/18 04:04:50;;;;;;;12.35;6.70;;;15.10;99.90;;;;;;8291593;28;20105;-81
2023/07/18 04:08:51;;;;;;;10.82;5.88;;;15.20;99.90;;;;;;8292735;28;20025;-81
2023/07/18 04:12:51;;;;;;;9.50;5.13;;;15.70;99.90;;;;;;8291942;28;20029;-80
2023/07/18 04:16:52;;;;;;;11.48;4.70;;;15.90;99.90;;;;;;8290698;28;20018;-81
2023/07/18 04:21:01;;;;;;;10.80;5.07;;;16.20;99.90;;;;;;8287855;28;20034;-83
2023/07/18 04:25:01;;;;;;;10.55;4.78;;;16.10;99.90;;;;;;8287016;28;20029;-80
2023/07/18 04:29:05;;;;;;;8.98;4.70;;;16.60;99.90;;;;;;8298330;28;20036;-81
2023/07/18 04:33:11;;;;;;;6.93;4.85;;;16.90;99.90;;;;;;8293752;28;20467;-81
2023/07/18 04:37:11;;;;;;;7.05;4.63;;;16.80;99.90;;;;;;8293360;28;20034;-85
2023/07/18 04:41:12;;;;;;;7.30;4.57;;;17.10;99.90;;;;;;8288431;28;20140;-85
2023/07/18 04:45:12;;;;;;;8.25;4.82;;;17.80;99.90;;;;;;8305031;28;20029;-84
2023/07/18 04:49:13;;;;;;;7.20;4.55;;;17.50;99.90;;;;;;8295190;28;20030;-85
2023/07/18 04:53:13;;;;;;;5.78;4.43;;;17.60;99.90;;;;;;8291782;28;20022;-86
2023/07/18 04:57:14;;;;;;;7.45;4.60;;;17.50;99.90;;;;;;8289390;28;20033;-86
2023/07/18 05:01:14;;;;;;;10.20;4.03;;;17.50;99.90;;;;;;8285533;28;20400;-85
2023/07/18 05:05:17;;;;;;;9.07;4.25;;;18.40;99.90;;;;;;8290313;28;20037;-84
2023/07/18 05:09:17;;;;;;;9.70;4.00;;;19.30;99.90;;;;;;8295007;28;20026;-85
2023/07/18 05:13:18;;;;;;;7.20;4.00;;;18.80;99.90;;;;;;8291175;28;20026;-87
2023/07/18 05:17:18;;;;;;;6.50;4.03;;;18.70;99.90;;;;;;8292746;28;20030;-85
2023/07/18 05:21:19;;;;;;;8.32;4.35;;;19.10;99.90;;;;;;8293039;28;20081;-86
2023/07/18 05:25:19;;;;;;;6.13;3.92;;;19.90;99.90;;;;;;8295538;28;20411;-85
2023/07/18 05:29:20;;;;;;;9.23;4.18;;;20.50;99.90;;;;;;8294152;28;20034;-87
2023/07/18 05:33:20;;;;;;;4.95;3.58;;;20.80;99.90;;;;;;8290521;28;20022;-87
2023/07/18 05:37:24;;;;;;;6.60;4.25;;;21.40;99.90;;;;;;8291806;28;20030;-86
2023/07/18 05:41:25;;;;;;;5.13;3.53;;;22.00;99.90;;;;;;8287937;28;20060;-85
2023/07/18 05:45:25;;;;;;;6.13;3.53;;;22.80;99.90;;;;;;8283823;28;20026;-85
2023/07/18 05:49:27;;;;;;;5.93;3.78;;;23.00;99.90;;;;;;8285322;28;20048;-86
2023/07/18 05:53:28;;;;;;;5.82;3.60;;;23.10;99.90;;;;;;8295000;28;20050;-85
2023/07/18 05:57:28;;;;;;;6.78;3.33;;;23.50;99.90;;;;;;8297085;28;20034;-88
2023/07/18 06:01:29;;;;;;;10.25;3.67;;;23.80;99.90;;;;;;8296018;28;20026;-87
2023/07/18 06:05:30;;;;;;;8.02;3.47;;;24.10;99.90;;;;;;8295671;28;20026;-85
2023/07/18 06:09:30;;;;;;;4.95;3.53;;;24.40;99.90;;;;;;8296481;28;20464;-83
2023/07/18 06:13:31;;;;;;;9.27;3.70;;;24.40;99.90;;;;;;8293536;28;20026;-84
2023/07/18 06:17:35;;;;;;;6.28;3.38;;;24.30;99.90;;;;;;8295341;28;20050;-84
2023/07/18 06:21:36;;;;;;;15.18;3.13;;;24.70;99.90;;;;;;8293547;28;20372;-83
2023/07/18 06:25:36;;;;;;;5.93;3.17;;;24.70;99.90;;;;;;8294579;28;20022;-86
2023/07/18 06:29:37;;;;;;;7.78;2.88;;;24.90;99.90;;;;;;8295442;28;20029;-85
2023/07/18 06:33:38;;;;;;;7.97;2.85;;;25.20;99.90;;;;;;8298005;28;20018;-85
2023/07/18 06:37:41;;;;;;;3.95;2.72;;;25.60;99.90;;;;;;8295088;28;20084;-86
2023/07/18 06:41:41;;;;;;;4.05;2.50;;;25.90;99.90;;;;;;8296435;28;20030;-86
2023/07/18 06:45:46;;;;;;;7.07;2.60;;;25.90;99.90;;;;;;8287989;28;20715;-85
2023/07/18 06:49:47;;;;;;;4.07;2.50;;;26.10;99.90;;;;;;8294167;28;20193;-86
2023/07/18 06:53:47;;;;;;;5.35;2.35;;;26.70;98.20;;;;;;8304142;28;20022;-84
2023/07/18 06:57:48;;;;;;;4.85;2.92;;;27.00;99.20;;;;;;8319525;28;20103;-85
2023/07/18 07:01:49;;;;;;;3.53;2.42;;;26.40;97.90;;;;;;8295366;28;20120;-84
2023/07/18 07:05:49;;;;;;;3.97;2.63;;;26.10;99.90;;;;;;8296405;28;20037;-85
2023/07/18 07:09:50;;;;;;;4.03;2.70;;;26.30;98.30;;;;;;8295876;28;20029;-85
2023/07/18 07:13:50;;;;;;;6.88;2.33;;;26.00;96.50;;;;;;8296113;28;20030;-84
2023/07/18 07:17:51;;;;;;;9.60;2.13;;;25.70;97.90;;;;;;8293986;28;20305;-84
2023/07/18 07:21:51;;;;;;;5.10;2.42;;;26.60;97.50;;;;;;8294676;28;20076;-83
2023/07/18 07:25:52;;;;;;;4.80;2.78;;;27.40;96.00;;;;;;8289733;28;20104;-82
2023/07/18 07:29:52;;;;;;;6.82;2.88;;;27.40;96.30;;;;;;8284869;28;20023;-85
2023/07/18 07:33:53;;;;;;;4.35;2.40;;;27.40;97.10;;;;;;8297720;28;20028;-85
2023/07/18 07:37:53;;;;;;;2.88;2.30;;;27.30;92.00;;;;;;8311616;28;20029;-85
2023/07/18 07:41:54;;;;;;;5.25;2.50;;;27.30;94.50;;;;;;8296994;28;20116;-85
2023/07/18 07:45:54;;;;;;;3.65;2.22;;;27.60;93.30;;;;;;8289473;28;20038;-86
2023/07/18 07:49:55;;;;;;;6.43;3.20;;;27.80;94.40;;;;;;8285135;28;20660;-85
2023/07/18 07:53:58;;;;;;;4.55;2.60;;;28.30;92.40;;;;;;8289017;28;20022;-85
2023/07/18 07:57:58;;;;;;;4.03;2.95;;;28.60;91.60;;;;;;8291317;28;20507;-85
2023/07/18 08:01:59;;;;;;;6.80;3.53;;;28.80;93.30;;;;;;8295074;28;20034;-85
2023/07/18 08:06:00;;;;;;;5.80;3.30;;;28.40;93.90;;;;;;8306459;28;20388;-86
2023/07/18 08:10:00;;;;;;;7.78;3.20;;;28.50;93.60;;;;;;8294579;28;20041;-86
2023/07/18 08:14:04;;;;;;;5.18;3.38;;;28.80;92.50;;;;;;8294988;28;20026;-87
2023/07/18 08:18:04;;;;;;;5.45;3.50;;;28.80;92.40;;;;;;8284541;28;20060;-85
2023/07/18 08:22:05;;;;;;;14.38;3.53;;;28.70;94.50;;;;;;8306200;28;20037;-86
2023/07/18 08:26:05;;;;;;;5.28;3.35;;;29.00;95.60;;;;;;8290173;28;20029;-86
2023/07/18 08:30:07;;;;;;;6.93;3.58;;;28.70;96.50;;;;;;8285589;28;20528;-85
2023/07/18 08:34:07;;;;;;;5.28;3.55;;;28.40;94.60;;;;;;8287898;28;20029;-86
2023/07/18 08:38:10;;;;;;;4.45;2.85;;;28.60;93.90;;;;;;8290935;28;20056;-86
2023/07/18 08:42:13;;;;;;;5.15;3.55;;;29.10;93.30;;;;;;8293885;28;20123;-85
2023/07/18 08:46:14;;;;;;;7.68;3.33;;;28.50;94.70;;;;;;8291342;28;20069;-84
2023/07/18 08:50:15;;;;;;;5.35;3.40;;;28.00;93.70;;;;;;8289811;28;20068;-85
2023/07/18 08:54:16;;;;;;;7.78;3.75;;;27.90;96.10;;;;;;8281877;28;20058;-85
2023/07/18 08:58:20;;;;;;;6.70;3.60;;;28.10;97.50;;;;;;8289609;28;20556;-85
2023/07/18 09:02:20;;;;;;;5.75;3.53;;;28.60;95.50;;;;;;8287452;28;20156;-87
2023/07/18 09:06:23;;;;;;;5.80;3.88;;;29.20;94.70;;;;;;8290920;28;20488;-86
2023/07/18 09:10:24;;;;;;;12.65;4.50;;;29.30;95.20;;;;;;8289859;28;20026;-86
2023/07/18 09:14:32;;;;;;;9.63;4.15;;;29.50;95.20;;;;;;8292210;28;20092;-87
2023/07/18 09:18:34;;;;;;;5.40;3.90;;;29.10;92.80;;;;;;8285579;28;20034;-85
2023/07/18 09:22:36;;;;;;;10.02;3.90;;;29.40;94.60;;;;;;8295872;28;20021;-85
2023/07/18 09:26:43;;;;;;;6.13;3.85;;;29.40;95.50;;;;;;8282172;28;20027;-86
2023/07/18 09:30:44;;;;;;;6.43;4.07;;;30.00;94.00;;;;;;8290093;28;20029;-86
2023/07/18 09:34:56;;;;;;;11.18;3.92;;;30.00;93.90;;;;;;8307874;28;20025;-84
2023/07/18 09:38:56;;;;;;;6.15;4.43;;;29.70;94.30;;;;;;8309231;28;20029;-86
2023/07/18 09:43:00;;;;;;;7.57;4.20;;;30.00;91.70;;;;;;8305232;28;20029;-86
2023/07/18 09:47:01;;;;;;;6.10;3.95;;;30.10;93.60;;;;;;8295511;28;20069;-85
2023/07/18 09:51:05;;;;;;;6.80;3.95;;;30.10;93.60;;;;;;8299391;28;20034;-87
2023/07/18 09:55:09;;;;;;;5.43;3.85;;;30.20;91.90;;;;;;8307943;28;20433;-87
2023/07/18 09:59:10;;;;;;;8.15;4.40;;;29.60;96.90;;;;;;8306431;28;20034;-88
2023/07/18 10:03:11;;;;;;;8.57;3.80;;;28.90;94.90;;;;;;8306876;28;20025;-86
2023/07/18 10:07:12;;;;;;;8.13;4.07;;;29.10;96.50;;;;;;8311715;28;20030;-85
2023/07/18 10:11:13;;;;;;;6.88;3.50;;;28.70;95.60;;;;;;8288233;28;20026;-87
2023/07/18 10:15:14;;;;;;;7.22;4.50;;;28.60;98.70;;;;;;8289690;28;20492;-87
2023/07/18 10:19:18;;;;;;;6.75;4.35;;;28.80;95.00;;;;;;8299163;28;20041;-85
2023/07/18 10:23:41;;;;;;;6.47;4.18;;;29.70;99.90;;;;;;8295179;28;20060;-86
2023/07/18 10:27:43;;;;;;;5.22;3.75;;;30.40;92.20;;;;;;8279724;28;20031;-85
2023/07/18 10:31:45;;;;;;;6.47;4.30;;;29.80;91.90;;;;;;8299296;28;20021;-86
2023/07/18 10:35:48;;;;;;;8.30;4.30;;;28.90;94.50;;;;;;8293747;28;20109;-83
2023/07/18 10:39:50;;;;;;;11.30;4.60;;;29.10;94.80;;;;;;8288143;28;20022;-82
2023/07/18 10:43:50;;;;;;;7.13;4.13;;;29.20;94.10;;;;;;8295312;28;20061;-83
2023/07/18 10:47:51;;;;;;;5.90;4.15;;;28.80;95.20;;;;;;8289380;28;20554;-83
2023/07/18 10:51:54;;;;;;;6.88;4.25;;;28.20;96.00;;;;;;8294424;28;20075;-82
2023/07/18 10:55:56;;;;;;;6.40;4.65;;;27.50;98.20;;;;;;8286758;28;20026;-88
2023/07/18 10:59:58;;;;;;;8.35;3.90;;;26.80;99.90;;;;;;8296923;28;20014;-88
2023/07/18 11:04:05;;;;;;;7.35;4.45;;;26.20;98.80;;;;;;8295992;28;20561;-87
2023/07/18 11:08:06;;;;;;;6.80;4.25;;;25.70;99.90;;;;;;8292964;28;20022;-86
2023/07/18 11:12:16;;;;;;;7.50;4.00;;;25.50;99.90;;;;;;8300591;28;20395;-84
2023/07/18 11:16:17;;;;;;;8.77;3.88;;;25.30;99.90;;;;;;8307946;28;20029;-82
2023/07/18 11:20:20;;;;;;;6.80;3.72;;;26.30;99.90;;;;;;8282861;28;20076;-81
2023/07/18 11:24:24;;;;;;;6.53;4.10;;;29.10;99.90;;;;;;8288760;28;20034;-82
2023/07/18 11:28:35;;;;;;;9.40;4.70;;;29.30;97.40;;;;;;8271940;28;20084;-81
2023/07/18 11:32:38;;;;;;;7.05;4.22;;;28.60;99.10;;;;;;8289219;28;20142;-80
2023/07/18 11:36:40;;;;;;;10.95;4.55;;;27.70;99.90;;;;;;8283644;28;20165;-81
2023/07/18 11:40:40;;;;;;;8.35;4.90;;;26.60;99.90;;;;;;8289940;28;20026;-79
2023/07/18 11:44:43;;;;;;;8.43;4.43;;;25.10;99.90;;;;;;8303912;28;20027;-80
2023/07/18 11:48:47;;;;;;;9.65;4.80;;;23.90;99.90;;;;;;8291085;28;20080;-79
2023/07/18 11:52:50;;;;;;;7.95;4.90;;;22.90;99.90;;;;;;8287093;28;20022;-78
2023/07/18 11:56:51;;;;;;;11.52;5.13;;;22.10;99.90;;;;;;8283007;28;20034;-79
2023/07/18 12:00:57;;;;;;;10.95;5.35;;;21.70;99.90;;;;;;8291190;28;20108;-79
2023/07/18 12:04:57;;;;;;;7.38;4.50;;;21.60;99.90;;;;;;8287190;28;20026;-79
2023/07/18 12:08:58;;;;;;;7.05;4.88;;;21.70;99.90;;;;;;8287858;28;20053;-79
2023/07/18 12:12:59;;;;;;;11.20;5.53;;;21.60;99.90;;;;;;8280852;28;20032;-78
2023/07/18 12:17:00;;;;;;;11.73;5.50;;;21.30;99.90;;;;;;8289049;28;20029;-79
2023/07/18 12:21:00;;;;;;;13.52;5.53;;;21.00;99.90;;;;;;8290480;28;20033;-80
2023/07/18 12:25:03;;;;;;;12.32;6.80;;;20.90;99.90;;;;;;8303034;28;20112;-80
2023/07/18 12:29:05;;;;;;;10.23;6.95;;;20.80;99.90;;;;;;8288490;28;20038;-80
2023/07/18 12:33:05;;;;;;;12.18;6.43;;;20.60;99.90;;;;;;8302294;28;20018;-80
2023/07/18 12:37:07;;;;;;;8.48;6.05;;;20.60;99.90;;;;;;8282306;28;20030;-81
2023/07/18 12:41:08;;;;;;;10.13;6.00;;;21.10;99.90;;;;;;8291284;28;20212;-79
2023/07/18 12:45:09;;;;;;;10.75;6.15;;;21.50;99.90;;;;;;8288242;28;20030;-81
2023/07/18 12:49:09;;;;;;;9.52;5.63;;;22.20;99.90;;;;;;8293979;28;20495;-81
2023/07/18 12:53:10;;;;;;;10.93;6.32;;;22.40;99.90;;;;;;8293932;28;20037;-81
2023/07/18 12:57:10;;;;;;;9.40;6.40;;;22.60;99.90;;;;;;8290615;28;20057;-81
2023/07/18 13:01:11;;;;;;;11.18;5.90;;;23.00;99.90;;;;;;8283330;28;20034;-78
2023/07/18 13:05:13;;;;;;;9.13;5.75;;;25.40;99.90;;;;;;8294429;28;20026;-79
2023/07/18 13:09:13;;;;;;;7.88;5.30;;;27.30;99.90;;;;;;8291172;28;20377;-82
2023/07/18 13:13:14;;;;;;;10.50;5.93;;;26.90;99.90;;;;;;8281321;28;20022;-82
2023/07/18 13:17:16;;;;;;;8.23;5.40;;;25.90;99.90;;;;;;8284969;28;20064;-81
2023/07/18 13:21:17;;;;;;;7.93;5.47;;;25.30;99.90;;;;;;8279973;28;20026;-82
2023/07/18 13:25:17;;;;;;;12.75;5.88;;;24.50;99.90;;;;;;8297211;28;20526;-78
2023/07/18 13:29:18;;;;;;;9.93;6.15;;;23.90;99.90;;;;;;8287725;28;20520;-81
2023/07/18 13:33:18;;;;;;;9.63;6.00;;;23.30;99.90;;;;;;8292596;28;20030;-80
2023/07/18 13:37:19;;;;;;;9.02;5.47;;;23.20;99.90;;;;;;8292516;28;20033;-81
2023/07/18 13:41:20;;;;;;;8.68;5.97;;;23.30;99.90;;;;;;8294981;28;20066;-81
2023/07/18 13:45:20;;;;;;;13.05;5.85;;;24.10;99.90;;;;;;8282939;28;20045;-80
2023/07/18 13:49:21;;;;;;;8.63;4.93;;;24.70;99.90;;;;;;8292527;28;20061;-80
2023/07/18 13:53:22;;;;;;;7.72;5.07;;;25.10;99.90;;;;;;8293001;28;20464;-81
2023/07/18 13:57:22;;;;;;;9.40;4.85;;;27.00;99.90;;;;;;8295112;28;20033;-81
2023/07/18 14:01:23;;;;;;;7.78;4.95;;;29.30;99.90;;;;;;8284204;28;20036;-82
2023/07/18 14:05:24;;;;;;;5.82;4.05;;;30.10;99.90;;;;;;8291583;28;20091;-81
2023/07/18 14:09:25;;;;;;;7.47;4.72;;;29.40;99.90;;;;;;8294324;28;20392;-81
2023/07/18 14:13:26;;;;;;;5.97;4.55;;;28.00;99.90;;;;;;8321261;28;20049;-81
2023/07/18 14:17:26;;;;;;;7.78;4.45;;;26.70;99.90;;;;;;8288087;28;20030;-82
2023/07/18 14:21:27;;;;;;;9.30;5.38;;;25.70;99.90;;;;;;8310223;28;20083;-81
2023/07/18 14:25:28;;;;;;;6.20;4.75;;;25.10;99.90;;;;;;8281024;28;20030;-81
2023/07/18 14:29:28;;;;;;;8.52;5.07;;;25.40;99.90;;;;;;8290929;28;20575;-80
2023/07/18 14:33:29;;;;;;;9.85;5.60;;;25.50;99.90;;;;;;8295822;28;20438;-81
2023/07/18 14:37:30;;;;;;;7.47;5.50;;;25.50;99.90;;;;;;8288607;28;20034;-79
2023/07/18 14:41:30;;;;;;;10.82;5.93;;;26.00;99.90;;;;;;8286253;28;20038;-82
2023/07/18 14:45:31;;;;;;;9.27;5.88;;;26.00;99.90;;;;;;8294274;28;20546;-79
2023/07/18 14:49:31;;;;;;;10.15;6.25;;;25.70;99.90;;;;;;8284200;28;20061;-79
2023/07/18 14:53:33;;;;;;;7.28;5.43;;;25.40;99.90;;;;;;8289535;28;20037;-80
2023/07/18 14:57:34;;;;;;;8.27;5.90;;;25.60;99.90;;;;;;8310544;28;20133;-81
2023/07/18 15:01:34;;;;;;;7.30;5.22;;;26.40;99.90;;;;;;8293025;28;20022;-80
2023/07/18 15:05:35;;;;;;;7.85;5.32;;;30.10;99.90;;;;;;8294266;28;20054;-80
2023/07/18 15:09:35;;;;;;;8.70;5.40;;;33.90;99.90;;;;;;8311730;28;20026;-80
2023/07/18 15:13:37;;;;;;;8.95;5.32;;;35.30;98.40;;;;;;8294960;28;20110;-81
2023/07/18 15:17:42;;;;;;;6.82;4.57;;;33.30;98.00;;;;;;8306296;28;20022;-80
2023/07/18 15:21:43;;;;;;;5.60;4.28;;;32.90;99.00;;;;;;8276352;28;20102;-81
2023/07/18 15:25:45;;;;;;;6.88;4.65;;;33.90;92.40;;;;;;8292380;28;20045;-81
2023/07/18 15:29:47;;;;;;;7.43;4.35;;;34.30;91.10;;;;;;8293703;28;20076;-81
2023/07/18 15:33:48;;;;;;;7.32;3.65;;;34.90;87.90;;;;;;8287243;28;20030;-79
2023/07/18 15:37:49;;;;;;;6.10;3.95;;;35.10;87.40;;;;;;8310813;28;20025;-81
2023/07/18 15:41:49;;;;;;;7.43;4.15;;;35.50;85.30;;;;;;8299249;28;20033;-81
2023/07/18 15:45:50;;;;;;;5.55;3.85;;;33.40;86.00;;;;;;8295420;28;20235;-81
2023/07/18 15:49:51;;;;;;;8.57;4.47;;;31.80;90.00;;;;;;8313222;28;20026;-81
2023/07/18 15:53:51;;;;;;;7.70;4.45;;;30.60;92.40;;;;;;8298521;28;20201;-82
2023/07/18 15:57:52;;;;;;;10.10;4.50;;;29.60;94.60;;;;;;8287377;28;20023;-83
2023/07/18 16:01:55;;;;;;;6.80;3.70;;;29.10;96.70;;;;;;8297353;28;20040;-82
2023/07/18 16:05:55;;;;;;;6.25;3.92;;;29.00;95.00;;;;;;8286466;28;20028;-82
2023/07/18 16:09:57;;;;;;;7.85;3.90;;;28.90;95.40;;;;;;8295956;28;20488;-82
2023/07/18 16:13:58;;;;;;;5.63;3.60;;;28.60;96.20;;;;;;8296675;28;20439;-82
2023/07/18 16:18:02;;;;;;;6.35;4.10;;;28.30;96.90;;;;;;8292188;28;20111;-81
2023/07/18 16:22:04;;;;;;;6.82;4.30;;;28.20;97.40;;;;;;8287753;28;20026;-82
2023/07/18 16:26:04;;;;;;;7.43;3.83;;;28.00;97.10;;;;;;8296469;28;20018;-82
2023/07/18 16:30:06;;;;;;;8.13;4.20;;;28.10;97.90;;;;;;8291035;28;20041;-82
2023/07/18 16:34:06;;;;;;;6.70;3.97;;;28.00;97.30;;;;;;8307121;28;20018;-82
2023/07/18 16:38:07;;;;;;;7.07;4.07;;;27.90;98.40;;;;;;8292505;28;20087;-79
2023/07/18 16:42:08;;;;;;;9.80;4.00;;;27.80;98.70;;;;;;8302005;28;20021;-80
2023/07/18 16:46:08;;;;;;;8.80;4.40;;;27.80;99.50;;;;;;8281010;28;20045;-79
2023/07/18 16:50:09;;;;;;;6.63;3.97;;;27.70;99.60;;;;;;8293074;28;20076;-80
2023/07/18 16:54:10;;;;;;;8.35;4.03;;;27.60;99.90;;;;;;8296777;28;20026;-82
2023/07/18 16:58:10;;;;;;;7.60;3.75;;;27.40;99.40;;;;;;8280191;28;20026;-82
2023/07/18 17:02:11;;;;;;;5.13;3.38;;;27.20;98.50;;;;;;8292507;28;20113;-81
2023/07/18 17:06:12;;;;;;;6.88;3.70;;;27.10;99.90;;;;;;8292892;28;20056;-80
2023/07/18 17:10:12;;;;;;;8.48;3.55;;;26.90;99.00;;;;;;8283755;28;20484;-80
2023/07/18 17:14:13;;;;;;;5.45;3.85;;;26.70;99.90;;;;;;8293289;28;20369;-81
2023/07/18 17:18:13;;;;;;;5.90;4.03;;;26.30;99.90;;;;;;8297979;28;20496;-81
2023/07/18 17:22:14;;;;;;;9.18;3.92;;;26.10;99.90;;;;;;8291667;28;20053;-81
2023/07/18 17:26:16;;;;;;;5.63;3.50;;;26.00;99.90;;;;;;8306222;28;20029;-80
2023/07/18 17:30:16;;;;;;;8.23;4.13;;;25.80;99.90;;;;;;8300174;28;20033;-81
2023/07/18 17:34:17;;;;;;;8.80;3.60;;;25.60;99.90;;;;;;8291250;28;20108;-80
2023/07/18 17:38:17;;;;;;;7.32;3.75;;;25.60;99.90;;;;;;8289035;28;20033;-79
2023/07/18 17:42:18;;;;;;;8.15;3.70;;;25.40;99.90;;;;;;8296264;28;20026;-85
2023/07/18 17:46:19;;;;;;;6.63;3.92;;;25.00;99.90;;;;;;8292982;28;20026;-85
2023/07/18 17:50:19;;;;;;;5.32;3.25;;;24.70;99.90;;;;;;8298487;28;20026;-85
2023/07/18 17:54:21;;;;;;;11.73;4.68;;;24.30;99.90;;;;;;8297208;28;20026;-85
2023/07/18 17:58:21;;;;;;;5.90;3.80;;;23.80;99.90;;;;;;8301159;28;20038;-88
2023/07/18 18:02:22;;;;;;;8.32;4.03;;;23.70;99.90;;;;;;8300560;28;20025;-84
2023/07/18 18:06:22;;;;;;;7.75;4.15;;;23.40;99.90;;;;;;8301920;28;20022;-85
2023/07/18 18:10:23;;;;;;;7.43;4.07;;;23.40;99.90;;;;;;8321143;28;20018;-85
2023/07/18 18:14:23;;;;;;;8.05;4.10;;;23.50;99.90;;;;;;8311863;28;20627;-86
2023/07/18 18:18:28;;;;;;;7.65;4.10;;;23.60;99.90;;;;;;8300984;28;20026;-84
2023/07/18 18:22:29;;;;;;;6.78;4.30;;;24.10;99.90;;;;;;8303359;28;20176;-84
2023/07/18 18:26:29;;;;;;;7.63;3.95;;;24.20;99.90;;;;;;8298414;28;20026;-85
2023/07/18 18:30:30;;;;;;;6.93;3.80;;;24.30;99.90;;;;;;8291476;28;20021;-84
2023/07/18 18:34:30;;;;;;;8.48;3.70;;;23.70;99.90;;;;;;8297334;28;20459;-84
2023/07/18 18:38:31;;;;;;;5.78;3.72;;;23.10;99.90;;;;;;8295133;28;20037;-85
2023/07/18 18:42:33;;;;;;;8.75;4.30;;;22.70;99.90;;;;;;8300247;28;20388;-85
2023/07/18 18:46:35;;;;;;;6.80;4.40;;;22.90;99.90;;;;;;8304682;28;20056;-85
2023/07/18 18:50:35;;;;;;;8.85;4.95;;;22.80;99.90;;;;;;8297029;28;20022;-81
2023/07/18 18:54:36;;;;;;;9.73;5.03;;;22.70;99.90;;;;;;8296955;28;20176;-81
2023/07/18 18:58:37;;;;;;;5.85;4.28;;;22.30;99.90;;;;;;8297614;28;20030;-82
2023/07/18 19:02:39;;;;;;;9.43;4.80;;;22.20;99.90;;;;;;8298619;28;20102;-82
2023/07/18 19:06:39;;;;;;;11.27;5.03;;;21.70;99.90;;;;;;8299861;28;20534;-81
2023/07/18 19:10:40;;;;;;;6.68;4.32;;;21.70;99.90;;;;;;8295510;28;20026;-83
2023/07/18 19:14:41;;;;;;;11.20;5.18;;;21.80;99.90;;;;;;8299140;28;20052;-82
2023/07/18 19:18:42;;;;;;;12.40;5.40;;;21.60;99.90;;;;;;8299743;28;20137;-82
2023/07/18 19:22:42;;;;;;;8.43;5.70;;;21.50;99.90;;;;;;8298429;28;20722;-82
2023/07/18 19:26:43;;;;;;;10.70;5.90;;;21.60;99.90;;;;;;8298587;28;20030;-82
2023/07/18 19:30:43;;;;;;;9.32;5.78;;;21.20;99.90;;;;;;8302391;28;20137;-81
2023/07/18 19:34:46;;;;;;;11.50;6.10;;;21.00;99.90;;;;;;8297318;28;20025;-79
2023/07/18 19:38:46;;;;;;;8.30;5.45;;;21.10;99.90;;;;;;8297016;28;20029;-80
2023/07/18 19:42:47;;;;;;;9.07;5.63;;;20.80;99.90;;;;;;8297221;28;20046;-82
2023/07/18 19:46:47;;;;;;;10.55;5.90;;;20.60;99.90;;;;;;8298001;28;20033;-81
2023/07/18 19:50:48;;;;;;;9.77;6.10;;;20.50;99.90;;;;;;8296218;28;20026;-81
2023/07/18 19:54:48;;;;;;;9.27;5.72;;;20.70;99.90;;;;;;8295797;28;20018;-82
2023/07/18 19:58:49;;;;;;;10.60;6.13;;;21.10;99.90;;;;;;8295687;28;20100;-80
2023/07/18 20:02:49;;;;;;;11.02;5.72;;;21.50;99.90;;;;;;8296680;28;20026;-79
2023/07/18 20:06:50;;;;;;;10.25;5.75;;;21.40;99.90;;;;;;8295908;28;20058;-80
2023/07/18 20:10:51;;;;;;;7.10;5.38;;;21.40;99.90;;;;;;8301729;28;20480;-82
2023/07/18 20:14:53;;;;;;;12.13;6.35;;;21.00;99.90;;;;;;8295347;28;20109;-82
2023/07/18 20:18:53;;;;;;;10.05;5.72;;;20.80;99.90;;;;;;8295701;28;20026;-82
2023/07/18 20:22:54;;;;;;;10.45;5.97;;;20.60;99.90;;;;;;8296557;28;20030;-80
2023/07/18 20:26:54;;;;;;;10.80;6.22;;;20.10;99.90;;;;;;8294768;28;20076;-81
2023/07/18 20:30:56;;;;;;;8.40;6.05;;;19.70;99.90;;;;;;8296331;28;20041;-82
2023/07/18 20:34:56;;;;;;;9.48;6.38;;;19.30;99.90;;;;;;8294470;28;20101;-81
2023/07/18 20:38:57;;;;;;;9.50;7.13;;;19.30;99.90;;;;;;8294028;28;20115;-82
2023/07/18 20:42:58;;;;;;;9.90;6.55;;;19.70;99.90;;;;;;8298890;28;20030;-81
2023/07/18 20:46:59;;;;;;;11.77;6.97;;;19.90;99.90;;;;;;8295491;28;20025;-81
2023/07/18 20:50:59;;;;;;;10.68;6.38;;;20.00;99.90;;;;;;8295555;28;20022;-81